Time;durP1;ratioP1;P1;durP2;ratioP2;P2;SDS_P1;SDS_P2;PMS_P1;PMS_P2;Temp;Humidity;BMP_temperature;BMP_pressure;BME280_temperature;BME280_humidity;BME280_pressure;Samples;Min_cycle;Max_cycle;Signal;HPM_P1;HPM_P2
2022/09/29 00:00:44;;;;;;;10.93;9.83;;;7.40;1.00;;;;;;4982129;28;20198;-70
2022/09/29 00:03:11;;;;;;;12.07;8.43;;;7.40;92.10;;;;;;4942538;28;20669;-70
2022/09/29 00:05:38;;;;;;;13.43;8.10;;;7.40;99.90;;;;;;4967648;28;20218;-70
2022/09/29 00:08:05;;;;;;;9.80;8.80;;;7.40;99.90;;;;;;4969012;28;20194;-70
2022/09/29 00:10:32;;;;;;;8.83;7.93;;;7.30;99.90;;;;;;4983785;28;20224;-70
2022/09/29 00:12:58;;;;;;;9.60;8.27;;;7.30;99.90;;;;;;4966323;28;20214;-67
2022/09/29 00:15:25;;;;;;;9.90;8.43;;;7.20;99.90;;;;;;4979826;28;20245;-67
2022/09/29 00:17:52;;;;;;;9.30;8.27;;;7.20;99.90;;;;;;4980295;28;20975;-67
2022/09/29 00:20:39;;;;;;;10.97;8.70;;;7.10;99.90;;;;;;4986236;28;20204;-68
2022/09/29 00:23:06;;;;;;;9.60;8.33;;;7.10;1.00;;;;;;4943644;28;20212;-67
2022/09/29 00:25:33;;;;;;;9.47;8.33;;;7.10;1.00;;;;;;4980426;28;20206;-67
2022/09/29 00:28:01;;;;;;;10.37;9.10;;;7.00;1.00;;;;;;4984849;28;20217;-67
2022/09/29 00:30:28;;;;;;;9.80;8.30;;;7.00;1.00;;;;;;4986581;28;20736;-66
2022/09/29 00:32:55;;;;;;;11.50;10.17;;;7.00;1.00;;;;;;4981985;28;20204;-66
2022/09/29 00:35:22;;;;;;;12.20;9.57;;;7.00;1.00;;;;;;4986457;28;20568;-66
2022/09/29 00:37:48;;;;;;;12.20;10.90;;;7.00;55.40;;;;;;4969420;28;20205;-66
2022/09/29 00:40:15;;;;;;;15.07;10.53;;;6.90;99.90;;;;;;4987748;28;20211;-66
2022/09/29 00:42:42;;;;;;;15.70;11.27;;;6.80;99.90;;;;;;4977504;28;20206;-66
2022/09/29 00:45:19;;;;;;;11.87;10.57;;;6.80;99.90;;;;;;4986739;28;20252;-66
2022/09/29 00:47:59;;;;;;;12.63;10.83;;;6.80;1.00;;;;;;4986023;28;20193;-66
2022/09/29 00:50:45;;;;;;;12.07;10.67;;;6.70;1.00;;;;;;4968655;28;20642;-66
2022/09/29 00:53:14;;;;;;;12.47;11.13;;;6.80;1.00;;;;;;4984111;28;20200;-66
2022/09/29 00:56:02;;;;;;;11.93;10.60;;;6.70;1.00;;;;;;4999145;28;20288;-66
2022/09/29 00:58:53;;;;;;;11.90;10.63;;;6.70;1.00;;;;;;4990809;28;20198;-66
2022/09/29 01:01:27;;;;;;;13.53;10.40;;;6.60;1.00;;;;;;4991148;28;20229;-68
2022/09/29 01:04:01;;;;;;;12.07;10.30;;;6.60;1.00;;;;;;4992192;28;20201;-64
2022/09/29 01:06:38;;;;;;;11.53;10.13;;;6.50;1.00;;;;;;4990759;28;20209;-65
2022/09/29 01:09:09;;;;;;;12.23;10.53;;;6.50;1.00;;;;;;4974957;28;20201;-65
2022/09/29 01:11:36;;;;;;;13.60;10.57;;;6.50;1.00;;;;;;4992524;28;20193;-65
2022/09/29 01:14:07;;;;;;;13.73;11.20;;;6.40;1.00;;;;;;4973163;28;20206;-65
2022/09/29 01:16:36;;;;;;;11.77;10.27;;;6.40;1.00;;;;;;4964231;28;20327;-65
2022/09/29 01:19:12;;;;;;;12.00;10.60;;;6.40;52.00;;;;;;4972962;28;20225;-65
2022/09/29 01:22:04;;;;;;;12.70;10.50;;;6.40;99.90;;;;;;4988841;28;20197;-65
2022/09/29 01:25:04;;;;;;;12.90;10.17;;;6.30;2.00;;;;;;4991394;28;20210;-65
2022/09/29 01:27:56;;;;;;;11.57;9.77;;;6.20;1.00;;;;;;4971596;28;20194;-65
2022/09/29 01:30:42;;;;;;;14.37;9.53;;;6.20;1.00;;;;;;4982527;28;20209;-65
2022/09/29 01:33:34;;;;;;;11.67;9.63;;;6.10;1.00;;;;;;4992512;28;20194;-65
2022/09/29 01:36:11;;;;;;;10.00;9.00;;;6.00;55.60;;;;;;4988199;28;20285;-66
2022/09/29 01:38:56;;;;;;;12.47;9.67;;;5.90;1.00;;;;;;4989551;28;20192;-66
2022/09/29 01:41:38;;;;;;;9.73;8.57;;;5.90;1.00;;;;;;4973047;28;20297;-65
2022/09/29 01:44:22;;;;;;;12.07;9.03;;;5.90;99.90;;;;;;4971173;28;20206;-66
2022/09/29 01:46:57;;;;;;;10.27;9.27;;;5.90;99.90;;;;;;5002679;28;20570;-66
2022/09/29 01:49:30;;;;;;;11.07;9.57;;;5.90;99.90;;;;;;4987120;28;20611;-65
2022/09/29 01:52:12;;;;;;;11.87;9.97;;;6.00;1.00;;;;;;4987440;28;20208;-67
2022/09/29 01:55:10;;;;;;;13.23;9.53;;;6.00;99.90;;;;;;4990519;28;20642;-67
2022/09/29 01:57:57;;;;;;;11.17;10.07;;;6.00;1.00;;;;;;4972665;28;20201;-65
2022/09/29 02:00:32;;;;;;;10.13;8.97;;;6.00;99.90;;;;;;4970012;28;20204;-66
2022/09/29 02:03:16;;;;;;;11.97;9.63;;;5.90;99.90;;;;;;4972816;28;20201;-67
2022/09/29 02:05:54;;;;;;;11.30;9.67;;;5.90;99.90;;;;;;4984613;28;20575;-64
2022/09/29 02:08:36;;;;;;;10.13;9.10;;;5.90;99.90;;;;;;5000245;28;20201;-67
2022/09/29 02:11:09;;;;;;;10.87;9.70;;;5.80;10.20;;;;;;4988689;28;20202;-67
2022/09/29 02:13:42;;;;;;;10.67;9.57;;;5.80;1.00;;;;;;4982313;28;20214;-65
2022/09/29 02:16:12;;;;;;;12.80;9.30;;;5.80;1.00;;;;;;4986574;28;20216;-67
2022/09/29 02:18:48;;;;;;;10.83;8.73;;;5.70;1.00;;;;;;4989942;28;20253;-64
2022/09/29 02:21:15;;;;;;;10.27;9.27;;;5.70;1.00;;;;;;5002633;28;20204;-65
2022/09/29 02:23:42;;;;;;;11.40;10.30;;;5.60;1.00;;;;;;4986540;28;20619;-65
2022/09/29 02:26:10;;;;;;;10.43;8.80;;;5.60;1.00;;;;;;4987019;28;20274;-64
2022/09/29 02:28:38;;;;;;;10.37;8.57;;;5.60;1.00;;;;;;5003044;28;20204;-64
2022/09/29 02:31:06;;;;;;;9.87;8.87;;;5.60;1.00;;;;;;4988564;28;20202;-64
2022/09/29 02:33:33;;;;;;;10.47;9.23;;;5.60;1.00;;;;;;5003257;28;20272;-65
2022/09/29 02:36:03;;;;;;;15.00;9.03;;;5.50;1.00;;;;;;4985017;28;20280;-65
2022/09/29 02:38:46;;;;;;;10.97;7.97;;;5.50;1.00;;;;;;4987024;28;20204;-65
2022/09/29 02:41:42;;;;;;;9.13;8.13;;;5.50;1.00;;;;;;4989522;28;20537;-67
2022/09/29 02:44:29;;;;;;;9.17;8.17;;;5.50;1.00;;;;;;4987329;28;20208;-66
2022/09/29 02:47:08;;;;;;;13.90;9.20;;;5.50;1.00;;;;;;4987852;28;21101;-66
2022/09/29 02:49:47;;;;;;;8.70;7.80;;;5.50;1.00;;;;;;4986748;28;20197;-66
2022/09/29 02:52:15;;;;;;;11.53;9.30;;;5.50;1.00;;;;;;4981191;28;20292;-66
2022/09/29 02:55:16;;;;;;;11.13;10.03;;;5.40;1.00;;;;;;5003361;28;20201;-65
2022/09/29 02:57:48;;;;;;;10.43;9.23;;;5.40;1.00;;;;;;4985471;28;20206;-67
2022/09/29 03:00:18;;;;;;;10.80;9.30;;;5.40;1.00;;;;;;4987226;28;20296;-66
2022/09/29 03:02:45;;;;;;;10.30;9.20;;;5.30;1.00;;;;;;4971870;28;20209;-66
2022/09/29 03:05:16;;;;;;;10.10;8.87;;;5.30;1.00;;;;;;4953451;28;20230;-66
2022/09/29 03:07:43;;;;;;;13.73;9.73;;;5.20;1.00;;;;;;4988461;28;20190;-65
2022/09/29 03:10:11;;;;;;;10.93;9.20;;;5.20;1.00;;;;;;5004757;28;20198;-65
2022/09/29 03:12:38;;;;;;;9.80;8.80;;;5.20;1.00;;;;;;4972932;28;20225;-65
2022/09/29 03:15:06;;;;;;;10.43;8.97;;;5.10;1.00;;;;;;4988033;28;20202;-64
2022/09/29 03:17:34;;;;;;;11.00;9.43;;;5.10;4.70;;;;;;4988657;28;20259;-64
2022/09/29 03:20:01;;;;;;;11.50;9.27;;;5.10;1.00;;;;;;4994341;28;20205;-64
2022/09/29 03:22:28;;;;;;;10.37;9.27;;;5.10;90.90;;;;;;4984730;28;20892;-63
2022/09/29 03:24:55;;;;;;;10.90;9.80;;;5.10;67.10;;;;;;4984077;28;20210;-64
2022/09/29 03:27:23;;;;;;;10.97;9.87;;;5.00;75.40;;;;;;4958300;28;20202;-63
2022/09/29 03:29:50;;;;;;;14.07;11.07;;;5.00;99.90;;;;;;4986610;28;20738;-62
2022/09/29 03:32:17;;;;;;;11.83;10.47;;;5.00;99.90;;;;;;4967762;28;20198;-60
2022/09/29 03:34:44;;;;;;;9.67;8.70;;;5.00;99.90;;;;;;5003005;28;20678;-60
2022/09/29 03:37:11;;;;;;;9.40;8.40;;;5.00;99.90;;;;;;4988268;28;20207;-60
2022/09/29 03:39:38;;;;;;;12.83;10.07;;;5.00;99.90;;;;;;4986897;28;20280;-61
2022/09/29 03:42:05;;;;;;;14.30;10.17;;;5.00;99.90;;;;;;5002160;28;20206;-60
2022/09/29 03:44:32;;;;;;;13.03;9.97;;;5.00;99.90;;;;;;4984337;28;20205;-60
2022/09/29 03:46:59;;;;;;;9.83;8.60;;;5.00;1.00;;;;;;4987476;28;20653;-60
2022/09/29 03:49:26;;;;;;;9.87;8.87;;;5.00;1.00;;;;;;4986484;28;20197;-60
2022/09/29 03:51:53;;;;;;;10.47;9.37;;;5.00;1.00;;;;;;4985302;28;20237;-60
2022/09/29 03:54:20;;;;;;;11.80;9.23;;;5.00;1.00;;;;;;5002667;28;20201;-60
2022/09/29 03:56:47;;;;;;;11.13;9.93;;;5.10;1.00;;;;;;4986562;28;20194;-60
2022/09/29 03:59:14;;;;;;;10.73;9.57;;;5.90;1.00;;;;;;4985511;28;20579;-60
2022/09/29 04:01:41;;;;;;;10.60;9.40;;;6.40;99.90;;;;;;4986750;28;20301;-60
2022/09/29 04:04:09;;;;;;;8.27;7.47;;;6.70;6.80;;;;;;4986694;28;20198;-60
2022/09/29 04:06:36;;;;;;;22.77;18.50;;;6.20;1.00;;;;;;4986555;28;20720;-60
2022/09/29 04:09:03;;;;;;;15.47;11.33;;;6.30;1.00;;;;;;4984739;28;20229;-60
2022/09/29 04:11:30;;;;;;;12.10;9.03;;;6.60;1.00;;;;;;4963781;28;20197;-60
2022/09/29 04:13:57;;;;;;;12.33;7.70;;;6.90;1.00;;;;;;4990954;28;20197;-61
2022/09/29 04:16:24;;;;;;;6.87;6.17;;;7.10;99.90;;;;;;4983609;28;20209;-61
2022/09/29 04:18:51;;;;;;;6.00;5.17;;;7.20;99.90;;;;;;4986325;28;20205;-60
2022/09/29 04:21:18;;;;;;;6.57;5.20;;;7.00;1.00;;;;;;4969670;28;20202;-61
2022/09/29 04:23:46;;;;;;;13.87;11.40;;;6.70;1.00;;;;;;5001493;28;20212;-61
2022/09/29 04:26:13;;;;;;;12.70;10.97;;;7.20;1.00;;;;;;4986541;28;20730;-61
2022/09/29 04:28:40;;;;;;;15.17;11.70;;;7.20;1.00;;;;;;4987210;28;20309;-61
2022/09/29 04:31:09;;;;;;;8.33;5.57;;;7.20;1.00;;;;;;4970963;28;20280;-60
2022/09/29 04:33:38;;;;;;;12.87;10.30;;;6.80;1.00;;;;;;4988520;28;20697;-60
2022/09/29 04:36:05;;;;;;;7.50;6.70;;;6.40;1.00;;;;;;4986234;28;20285;-60
2022/09/29 04:38:32;;;;;;;9.50;6.20;;;6.40;1.00;;;;;;4991464;28;20229;-60
2022/09/29 04:40:59;;;;;;;6.70;5.70;;;6.20;99.90;;;;;;4973174;28;20673;-60
2022/09/29 04:43:26;;;;;;;10.90;9.60;;;5.90;1.00;;;;;;5003023;28;20208;-60
2022/09/29 04:46:01;;;;;;;9.53;7.47;;;5.80;1.00;;;;;;4971501;28;20280;-61
2022/09/29 04:48:27;;;;;;;8.83;7.93;;;5.60;1.00;;;;;;4990036;28;20275;-61
2022/09/29 04:51:01;;;;;;;11.70;8.17;;;5.50;1.00;;;;;;5003707;28;20256;-61
2022/09/29 04:53:28;;;;;;;10.83;7.83;;;5.40;99.90;;;;;;4979896;28;20253;-62
2022/09/29 04:55:55;;;;;;;9.33;7.97;;;5.30;99.90;;;;;;5005421;28;20197;-61
2022/09/29 04:58:22;;;;;;;11.30;8.10;;;5.20;99.90;;;;;;4990200;28;20220;-62
2022/09/29 05:00:48;;;;;;;7.63;6.93;;;5.10;99.90;;;;;;4985138;28;20214;-61
2022/09/29 05:03:15;;;;;;;29.83;22.30;;;5.00;1.00;;;;;;4981227;28;20236;-61
2022/09/29 05:05:42;;;;;;;12.70;11.13;;;5.00;1.00;;;;;;4983478;28;20225;-61
2022/09/29 05:08:09;;;;;;;9.20;7.83;;;5.30;99.90;;;;;;5002086;28;20190;-61
2022/09/29 05:10:36;;;;;;;14.17;7.90;;;5.00;1.00;;;;;;5004903;28;20194;-61
2022/09/29 05:13:04;;;;;;;9.07;8.10;;;4.90;1.00;;;;;;4987219;28;20229;-61
2022/09/29 05:15:30;;;;;;;10.10;8.33;;;4.90;1.00;;;;;;4968765;28;20206;-61
2022/09/29 05:18:01;;;;;;;9.90;8.13;;;4.90;29.30;;;;;;4986041;28;20602;-61
2022/09/29 05:20:28;;;;;;;9.93;8.33;;;4.80;99.90;;;;;;4981861;28;20698;-61
2022/09/29 05:23:08;;;;;;;9.43;8.30;;;4.70;99.90;;;;;;4987103;28;20201;-61
2022/09/29 05:25:37;;;;;;;10.53;8.87;;;4.80;99.90;;;;;;5002373;28;20241;-61
2022/09/29 05:28:04;;;;;;;11.33;8.67;;;5.00;1.00;;;;;;4988750;28;20201;-61
2022/09/29 05:30:31;;;;;;;10.00;8.63;;;5.00;1.00;;;;;;4982088;28;20256;-61
2022/09/29 05:32:58;;;;;;;11.20;9.30;;;4.90;1.00;;;;;;4988237;28;20713;-61
2022/09/29 05:35:25;;;;;;;12.90;9.13;;;4.80;1.00;;;;;;4989773;28;20197;-61
2022/09/29 05:37:52;;;;;;;12.50;8.67;;;4.90;1.00;;;;;;4986800;28;20209;-61
2022/09/29 05:40:22;;;;;;;11.13;9.73;;;4.90;1.00;;;;;;4971617;28;20567;-61
2022/09/29 05:42:50;;;;;;;24.53;15.30;;;4.90;1.00;;;;;;4984007;28;20202;-61
2022/09/29 05:45:18;;;;;;;17.27;12.17;;;4.90;99.90;;;;;;4967716;28;20697;-61
2022/09/29 05:47:44;;;;;;;16.10;13.83;;;5.00;99.90;;;;;;4969764;28;20209;-61
2022/09/29 05:50:12;;;;;;;20.67;14.67;;;5.10;1.00;;;;;;4951344;28;20237;-61
2022/09/29 05:52:40;;;;;;;25.03;16.80;;;5.70;1.00;;;;;;4972014;28;20205;-61
2022/09/29 05:55:08;;;;;;;20.10;16.03;;;6.70;1.00;;;;;;4958604;28;20265;-62
2022/09/29 05:57:36;;;;;;;18.00;14.33;;;7.60;99.90;;;;;;4982341;28;20206;-61
2022/09/29 06:00:04;;;;;;;22.90;16.07;;;8.60;1.00;;;;;;4988067;28;20280;-62
2022/09/29 06:02:37;;;;;;;19.97;16.13;;;9.10;99.90;;;;;;4987915;28;20268;-62
2022/09/29 06:05:04;;;;;;;18.23;15.17;;;8.70;99.90;;;;;;4989886;28;20212;-62
2022/09/29 06:07:31;;;;;;;20.23;11.90;;;9.20;99.90;;;;;;4987654;28;20189;-62
2022/09/29 06:09:58;;;;;;;15.63;11.23;;;10.80;20.70;;;;;;4970423;28;20579;-62
2022/09/29 06:12:25;;;;;;;13.73;10.57;;;12.50;1.00;;;;;;4989870;28;20213;-62
2022/09/29 06:14:52;;;;;;;13.07;11.30;;;14.00;1.00;;;;;;4969880;28;20219;-62
2022/09/29 06:17:19;;;;;;;15.07;10.27;;;14.50;1.00;;;;;;5005506;28;20275;-62
2022/09/29 06:19:46;;;;;;;12.63;8.55;;;14.70;1.00;;;;;;4975628;28;20209;-62
2022/09/29 06:22:13;;;;;;;9.77;8.52;;;14.80;1.00;;;;;;5002242;28;20249;-62
2022/09/29 06:24:40;;;;;;;10.88;8.75;;;15.00;1.00;;;;;;5001970;28;20264;-62
2022/09/29 06:27:07;;;;;;;10.60;8.73;;;15.00;1.00;;;;;;4985797;28;20304;-62
2022/09/29 06:29:34;;;;;;;9.10;7.93;;;15.60;1.00;;;;;;4987026;28;20707;-62
2022/09/29 06:32:02;;;;;;;8.10;6.78;;;16.40;1.00;;;;;;4987234;28;20208;-62
2022/09/29 06:34:29;;;;;;;7.53;6.70;;;17.00;1.00;;;;;;4989011;28;20823;-62
2022/09/29 06:39:42;;;;;;;7.45;5.60;;;18.20;1.00;;;;;;5003108;28;20749;-62
2022/09/29 06:42:09;;;;;;;7.32;6.53;;;18.70;1.00;;;;;;4988937;28;20285;-62
2022/09/29 06:44:36;;;;;;;7.15;5.97;;;19.30;1.00;;;;;;4988595;28;21066;-60
2022/09/29 06:47:04;;;;;;;12.15;10.77;;;19.80;1.00;;;;;;4986088;28;20216;-61
2022/09/29 06:49:31;;;;;;;7.65;5.68;;;20.90;1.00;;;;;;4982517;28;20228;-60
2022/09/29 06:51:57;;;;;;;6.53;5.93;;;21.70;1.00;;;;;;5002622;28;20260;-61
2022/09/29 06:54:25;;;;;;;6.72;5.95;;;20.70;1.00;;;;;;4987113;28;20248;-61
2022/09/29 06:56:54;;;;;;;12.38;11.07;;;21.00;1.00;;;;;;4969114;28;20205;-60
2022/09/29 06:59:21;;;;;;;13.02;9.77;;;19.80;1.00;;;;;;4988468;28;20260;-60
2022/09/29 07:01:49;;;;;;;19.85;14.10;;;16.00;1.00;;;;;;4988436;28;20272;-60
2022/09/29 07:04:19;;;;;;;17.67;12.75;;;12.80;1.00;;;;;;4987684;28;20205;-61
2022/09/29 07:06:47;;;;;;;10.20;8.68;;;11.10;1.00;;;;;;4967903;28;20225;-62
2022/09/29 07:09:15;;;;;;;18.23;12.57;;;10.30;5.50;;;;;;5001656;28;20238;-62
2022/09/29 07:11:45;;;;;;;11.30;8.70;;;10.50;90.90;;;;;;4970382;28;20197;-62
2022/09/29 07:14:13;;;;;;;10.77;7.63;;;10.90;1.00;;;;;;4988083;28;20193;-62
2022/09/29 07:16:40;;;;;;;9.23;6.90;;;13.00;1.00;;;;;;4987351;28;20693;-62
2022/09/29 07:19:08;;;;;;;9.65;6.10;;;16.70;1.00;;;;;;4970510;28;20201;-60
2022/09/29 07:21:35;;;;;;;7.28;6.15;;;19.70;1.00;;;;;;4970832;28;20707;-60
2022/09/29 07:24:02;;;;;;;7.15;6.25;;;21.50;1.00;;;;;;4985040;28;20289;-60
2022/09/29 07:26:37;;;;;;;20.63;15.18;;;21.30;1.00;;;;;;5072451;28;20625;-61
2022/09/29 07:29:04;;;;;;;9.75;5.72;;;22.80;1.00;;;;;;5074493;28;20571;-61
2022/09/29 07:31:31;;;;;;;8.70;5.78;;;23.30;1.00;;;;;;5072861;28;20212;-61
2022/09/29 07:34:10;;;;;;;10.13;8.35;;;24.50;1.00;;;;;;5060173;28;20528;-61
2022/09/29 07:36:37;;;;;;;7.75;5.65;;;25.10;1.00;;;;;;5072311;28;20277;-73
2022/09/29 07:39:04;;;;;;;8.80;6.45;;;23.50;1.00;;;;;;5060522;28;20201;-61
2022/09/29 07:41:32;;;;;;;10.13;5.20;;;23.80;1.00;;;;;;5058225;28;20313;-62
2022/09/29 07:43:59;;;;;;;7.40;6.00;;;25.40;1.00;;;;;;5073812;28;20278;-61
2022/09/29 07:46:26;;;;;;;6.90;5.05;;;23.60;1.00;;;;;;5073127;28;20206;-62
2022/09/29 07:48:53;;;;;;;7.18;4.60;;;22.30;1.00;;;;;;5072517;28;20198;-62
2022/09/29 07:51:20;;;;;;;6.68;5.03;;;23.90;1.00;;;;;;5073623;28;20199;-63
2022/09/29 07:53:47;;;;;;;6.50;5.28;;;24.40;1.00;;;;;;5074602;28;20194;-61
2022/09/29 07:56:19;;;;;;;10.52;4.88;;;25.50;1.00;;;;;;5084904;28;20199;-61
2022/09/29 07:58:48;;;;;;;8.13;5.15;;;27.00;1.00;;;;;;5073584;28;20207;-62
2022/09/29 08:01:17;;;;;;;8.38;6.10;;;26.70;1.00;;;;;;5061866;28;20202;-62
2022/09/29 08:03:52;;;;;;;7.05;5.55;;;25.00;1.00;;;;;;5070617;28;20194;-61
2022/09/29 08:06:21;;;;;;;5.85;4.95;;;24.20;1.00;;;;;;5068004;28;20214;-62
2022/09/29 08:08:48;;;;;;;8.52;6.72;;;22.20;1.00;;;;;;5075042;28;20191;-62
2022/09/29 08:11:29;;;;;;;6.85;5.72;;;19.10;1.00;;;;;;5074218;28;20190;-61
2022/09/29 08:13:59;;;;;;;11.05;8.73;;;17.50;1.00;;;;;;5050026;28;20200;-62
2022/09/29 08:16:26;;;;;;;10.18;9.15;;;16.30;1.00;;;;;;5048485;28;20206;-61
2022/09/29 08:18:53;;;;;;;11.80;10.70;;;14.90;1.00;;;;;;5054324;28;20246;-61
2022/09/29 08:21:20;;;;;;;8.88;7.63;;;14.80;1.00;;;;;;5053900;28;20283;-61
2022/09/29 08:23:47;;;;;;;11.10;9.88;;;14.50;1.00;;;;;;5037966;28;20225;-61
2022/09/29 08:26:19;;;;;;;8.70;7.28;;;14.90;1.00;;;;;;5048166;28;20227;-61
2022/09/29 08:29:05;;;;;;;10.95;9.85;;;14.90;1.00;;;;;;5054375;28;20204;-61
2022/09/29 08:31:36;;;;;;;12.65;9.98;;;14.70;1.00;;;;;;5054447;28;20230;-61
2022/09/29 08:34:05;;;;;;;12.80;10.00;;;14.90;1.00;;;;;;5035756;28;20203;-61
2022/09/29 08:36:31;;;;;;;8.25;7.45;;;14.90;1.00;;;;;;5037117;28;20217;-61
2022/09/29 08:38:59;;;;;;;15.50;11.15;;;15.00;1.00;;;;;;5052400;28;20573;-61
2022/09/29 08:41:44;;;;;;;16.77;10.32;;;15.00;1.00;;;;;;5024295;28;20208;-61
2022/09/29 08:44:37;;;;;;;7.10;6.38;;;15.10;1.00;;;;;;5018669;28;20214;-61
2022/09/29 08:47:11;;;;;;;12.02;8.88;;;21.90;1.00;;;;;;5030543;28;20583;-61
2022/09/29 08:49:42;;;;;;;14.98;10.52;;;25.00;1.00;;;;;;5038396;28;20199;-61
2022/09/29 08:52:20;;;;;;;9.82;8.80;;;28.20;1.00;;;;;;5024303;28;22852;-61
2022/09/29 08:54:51;;;;;;;24.77;19.67;;;31.70;1.00;;;;;;5038593;28;20223;-62
2022/09/29 08:57:19;;;;;;;8.73;5.53;;;29.50;1.00;;;;;;5040054;28;20192;-61
2022/09/29 08:59:53;;;;;;;20.85;15.95;;;30.10;1.00;;;;;;5040210;28;20801;-62
2022/09/29 09:02:52;;;;;;;8.27;5.25;;;29.90;1.00;;;;;;5038115;28;20192;-61
2022/09/29 09:05:57;;;;;;;6.90;6.18;;;30.20;1.00;;;;;;5040773;28;20203;-61
2022/09/29 09:09:00;;;;;;;8.35;6.57;;;31.10;1.00;;;;;;5006240;28;20200;-63
2022/09/29 09:11:46;;;;;;;22.95;15.27;;;32.90;1.00;;;;;;5040087;28;20204;-62
2022/09/29 09:14:37;;;;;;;12.65;9.55;;;30.90;1.00;;;;;;5037158;28;20199;-61
2022/09/29 09:17:41;;;;;;;6.53;5.78;;;30.60;1.00;;;;;;5031733;28;20196;-62
2022/09/29 09:20:25;;;;;;;6.60;4.93;;;34.70;1.00;;;;;;5032855;28;20195;-62
2022/09/29 09:22:58;;;;;;;8.48;4.78;;;36.10;1.00;;;;;;5036031;28;20203;-62
2022/09/29 09:25:31;;;;;;;9.60;6.30;;;36.20;1.00;;;;;;5029492;28;20327;-61
2022/09/29 09:28:41;;;;;;;5.22;4.47;;;31.90;1.00;;;;;;5017459;28;20193;-61
2022/09/29 09:31:19;;;;;;;15.38;10.20;;;30.90;1.00;;;;;;4940663;28;20323;-61
2022/09/29 09:34:02;;;;;;;27.52;20.33;;;30.50;1.00;;;;;;5007712;28;20617;-61
2022/09/29 09:36:37;;;;;;;10.80;8.95;;;31.80;1.00;;;;;;5012479;28;20200;-62
2022/09/29 09:39:08;;;;;;;8.82;7.88;;;34.60;1.00;;;;;;5015315;28;20605;-62
2022/09/29 09:41:37;;;;;;;16.10;12.13;;;34.30;1.00;;;;;;5017823;28;20262;-62
2022/09/29 09:44:18;;;;;;;8.50;6.93;;;36.40;1.00;;;;;;5012370;28;20211;-62
2022/09/29 09:46:54;;;;;;;9.85;6.82;;;33.70;1.00;;;;;;5012118;28;20290;-63
2022/09/29 09:49:30;;;;;;;12.15;8.82;;;31.40;1.00;;;;;;5017841;28;20188;-61
2022/09/29 09:52:03;;;;;;;10.40;7.38;;;23.80;1.00;;;;;;5017081;28;20195;-61
2022/09/29 09:54:38;;;;;;;8.05;5.40;;;24.70;1.00;;;;;;5018581;28;20204;-61
2022/09/29 09:57:32;;;;;;;7.50;5.10;;;20.80;1.00;;;;;;5017450;28;20230;-61
2022/09/29 10:00:20;;;;;;;6.85;4.47;;;25.40;1.00;;;;;;5020049;28;20291;-62
2022/09/29 10:02:55;;;;;;;7.70;4.68;;;31.50;1.00;;;;;;5016203;28;20196;-62
2022/09/29 10:05:28;;;;;;;8.00;4.63;;;34.50;1.00;;;;;;5006159;28;20221;-62
2022/09/29 10:07:55;;;;;;;7.03;4.60;;;37.60;1.00;;;;;;5032135;28;20259;-62
2022/09/29 10:10:25;;;;;;;5.97;4.22;;;39.20;1.00;;;;;;5016171;28;20254;-62
2022/09/29 10:13:07;;;;;;;7.85;4.68;;;36.60;1.00;;;;;;5014697;28;20334;-62
2022/09/29 10:15:43;;;;;;;6.40;4.53;;;33.70;1.00;;;;;;5030323;28;20295;-62
2022/09/29 10:18:13;;;;;;;6.03;5.20;;;32.60;1.00;;;;;;5028297;28;20215;-62
2022/09/29 10:20:41;;;;;;;7.40;4.95;;;32.10;1.00;;;;;;5018640;28;20200;-62
2022/09/29 10:23:32;;;;;;;5.82;3.55;;;34.70;1.00;;;;;;5018700;28;20589;-61
2022/09/29 10:26:02;;;;;;;7.43;6.00;;;37.50;1.00;;;;;;5022155;28;20224;-62
2022/09/29 10:28:45;;;;;;;7.95;7.15;;;37.70;1.00;;;;;;5036321;28;20896;-61
2022/09/29 10:31:31;;;;;;;5.03;3.53;;;36.40;1.00;;;;;;5032783;28;20270;-61
2022/09/29 10:34:22;;;;;;;7.40;4.82;;;35.60;1.00;;;;;;5035848;28;20200;-61
2022/09/29 10:37:04;;;;;;;4.10;2.80;;;35.30;1.00;;;;;;5038017;28;20200;-61
2022/09/29 10:39:42;;;;;;;8.45;4.68;;;36.90;1.00;;;;;;5037764;28;20260;-61
2022/09/29 10:42:21;;;;;;;6.75;5.40;;;37.30;1.00;;;;;;5018091;28;20208;-61
2022/09/29 10:44:51;;;;;;;5.50;3.92;;;34.20;1.00;;;;;;5034902;28;20200;-61
2022/09/29 10:47:20;;;;;;;5.03;3.17;;;35.50;1.00;;;;;;5037845;28;20210;-60
2022/09/29 10:50:06;;;;;;;5.15;3.88;;;30.70;1.00;;;;;;5018946;28;20259;-60
2022/09/29 10:52:33;;;;;;;6.05;2.97;;;33.10;1.00;;;;;;5035982;28;20192;-60
2022/09/29 10:55:04;;;;;;;3.92;3.00;;;30.80;1.00;;;;;;5019355;28;20196;-60
2022/09/29 10:57:37;;;;;;;4.78;3.30;;;26.20;1.00;;;;;;5039980;28;20191;-61
2022/09/29 11:00:05;;;;;;;10.32;5.35;;;26.70;1.00;;;;;;5007982;28;20281;-62
2022/09/29 11:02:39;;;;;;;6.95;5.20;;;30.30;1.00;;;;;;5037898;28;21173;-61
2022/09/29 11:05:19;;;;;;;6.45;3.63;;;32.40;1.00;;;;;;5038997;28;20197;-61
2022/09/29 11:07:47;;;;;;;6.80;2.65;;;32.70;1.00;;;;;;5016898;28;20721;-61
2022/09/29 11:10:35;;;;;;;5.45;3.15;;;33.30;1.00;;;;;;5035981;28;20838;-61
2022/09/29 11:13:23;;;;;;;5.18;3.05;;;33.20;1.00;;;;;;5034598;28;20211;-60
2022/09/29 11:15:50;;;;;;;4.68;3.10;;;27.60;1.00;;;;;;5033261;28;20294;-61
2022/09/29 11:18:31;;;;;;;5.22;2.60;;;25.90;1.00;;;;;;5047718;28;20216;-60
2022/09/29 11:21:19;;;;;;;4.55;2.95;;;24.90;1.00;;;;;;5037374;28;20209;-60
2022/09/29 11:24:01;;;;;;;4.32;2.60;;;26.40;1.00;;;;;;4974689;28;20226;-61
2022/09/29 11:26:49;;;;;;;4.57;2.90;;;25.50;1.00;;;;;;5037138;28;20234;-59
2022/09/29 11:29:53;;;;;;;5.57;3.03;;;24.20;1.00;;;;;;5037417;28;20194;-60
2022/09/29 11:32:48;;;;;;;5.65;2.65;;;22.70;1.00;;;;;;5037060;28;20233;-59
2022/09/29 11:35:39;;;;;;;3.63;2.45;;;23.70;1.00;;;;;;5037529;28;21141;-60
2022/09/29 11:38:28;;;;;;;3.50;2.65;;;22.10;1.00;;;;;;5036131;28;20192;-60
2022/09/29 11:41:14;;;;;;;4.18;3.10;;;23.40;1.00;;;;;;5020177;28;20546;-60
2022/09/29 11:43:57;;;;;;;3.03;2.70;;;24.80;1.00;;;;;;5017322;28;20292;-60
2022/09/29 11:46:41;;;;;;;4.30;2.63;;;26.40;1.00;;;;;;5036143;28;20199;-72
2022/09/29 11:49:27;;;;;;;2.83;2.40;;;27.20;1.00;;;;;;5034991;28;20196;-60
2022/09/29 11:52:07;;;;;;;3.42;2.10;;;28.60;1.00;;;;;;5050775;28;20184;-59
2022/09/29 11:54:59;;;;;;;4.25;2.63;;;26.40;1.00;;;;;;5034502;28;20192;-60
2022/09/29 11:58:11;;;;;;;4.40;2.72;;;23.40;1.00;;;;;;5051111;28;20196;-61
2022/09/29 12:01:00;;;;;;;3.38;2.90;;;26.20;1.00;;;;;;5030605;28;20218;-61
2022/09/29 12:03:35;;;;;;;4.20;3.00;;;25.30;1.00;;;;;;5039706;28;20261;-61
2022/09/29 12:06:32;;;;;;;3.50;2.95;;;26.80;1.00;;;;;;5037340;28;20218;-62
2022/09/29 12:09:14;;;;;;;4.80;2.80;;;27.90;1.00;;;;;;5037635;28;20184;-61
2022/09/29 12:11:59;;;;;;;3.75;3.20;;;28.30;1.00;;;;;;5027214;28;20188;-61
2022/09/29 12:15:17;;;;;;;3.70;2.65;;;28.60;1.00;;;;;;5028252;28;20191;-61
2022/09/29 12:17:50;;;;;;;6.10;2.95;;;28.50;1.00;;;;;;5022508;28;20235;-65
2022/09/29 12:20:28;;;;;;;3.63;2.10;;;28.50;1.00;;;;;;5023065;28;20219;-61
2022/09/29 12:23:04;;;;;;;7.68;2.83;;;28.20;1.00;;;;;;5036904;28;20223;-61
2022/09/29 12:25:35;;;;;;;4.03;3.42;;;27.80;1.00;;;;;;5021840;28;20564;-62
2022/09/29 12:28:16;;;;;;;6.15;3.08;;;26.90;1.00;;;;;;5028246;28;20220;-61
2022/09/29 12:30:53;;;;;;;5.30;3.20;;;25.50;1.00;;;;;;5037954;28;20194;-61
2022/09/29 12:33:33;;;;;;;4.40;3.72;;;24.70;1.00;;;;;;5022687;28;20203;-62
2022/09/29 12:36:42;;;;;;;3.00;2.22;;;24.10;1.00;;;;;;5021973;28;20762;-61
2022/09/29 12:39:00;;;;;;;4.68;2.63;;;23.60;1.00;;;;;;5026029;28;20208;-62
2022/09/29 12:41:37;;;;;;;3.58;3.05;;;23.20;1.00;;;;;;5040472;28;20223;-63
2022/09/29 12:44:21;;;;;;;4.35;2.70;;;22.20;1.00;;;;;;5020234;28;20206;-62
2022/09/29 12:46:56;;;;;;;3.65;2.67;;;22.50;1.00;;;;;;5052429;28;20304;-63
2022/09/29 12:50:10;;;;;;;5.28;2.60;;;22.40;1.00;;;;;;5034785;28;20649;-61
2022/09/29 12:53:02;;;;;;;5.10;2.95;;;22.90;1.00;;;;;;5040220;28;20698;-61
2022/09/29 12:55:52;;;;;;;3.35;2.72;;;22.10;1.00;;;;;;5022878;28;20191;-61
2022/09/29 12:58:32;;;;;;;5.88;2.92;;;22.10;1.00;;;;;;5027961;28;20291;-61
2022/09/29 13:01:27;;;;;;;4.65;3.05;;;22.40;1.00;;;;;;5023017;28;20397;-62
2022/09/29 13:04:22;;;;;;;4.18;3.03;;;21.40;1.00;;;;;;5041824;28;20188;-61
2022/09/29 13:07:18;;;;;;;4.47;3.00;;;22.10;1.00;;;;;;5012909;28;20806;-60
2022/09/29 13:10:16;;;;;;;3.88;3.55;;;22.10;1.00;;;;;;5035170;28;20196;-62
2022/09/29 13:13:01;;;;;;;5.93;3.92;;;21.90;1.00;;;;;;5035581;28;20462;-62
2022/09/29 13:15:40;;;;;;;4.78;3.90;;;21.80;1.00;;;;;;5022468;28;20278;-62
2022/09/29 13:18:38;;;;;;;6.40;4.57;;;21.10;1.00;;;;;;5039198;28;20226;-62
2022/09/29 13:21:30;;;;;;;6.68;4.97;;;20.50;1.00;;;;;;5038911;28;20241;-61
2022/09/29 13:24:22;;;;;;;6.45;5.28;;;20.20;1.00;;;;;;5054189;28;20559;-62
2022/09/29 13:27:08;;;;;;;8.07;5.97;;;20.00;1.00;;;;;;5020825;28;20211;-60
2022/09/29 13:30:04;;;;;;;8.30;7.18;;;20.00;1.00;;;;;;5038267;28;20221;-61
2022/09/29 13:32:32;;;;;;;9.15;5.57;;;20.00;1.00;;;;;;5024250;28;20196;-61
2022/09/29 13:35:01;;;;;;;5.22;4.72;;;20.10;1.00;;;;;;5040640;28;20279;-61